sensor_id;sensor_type;location;lat;lon;timestamp;temperature;humidity
573;DHT22;271;51.114;13.780;2023-04-03T00:01:24;3.30;1.00
573;DHT22;271;51.114;13.780;2023-04-03T00:04:12;3.30;1.00
573;DHT22;271;51.114;13.780;2023-04-03T00:07:00;3.30;1.00
573;DHT22;271;51.114;13.780;2023-04-03T00:09:49;3.20;1.00
573;DHT22;271;51.114;13.780;2023-04-03T00:12:36;3.20;1.00
573;DHT22;271;51.114;13.780;2023-04-03T00:15:24;3.10;1.00
573;DHT22;271;51.114;13.780;2023-04-03T00:18:12;3.10;1.00
573;DHT22;271;51.114;13.780;2023-04-03T00:21:00;3.00;1.00
573;DHT22;271;51.114;13.780;2023-04-03T00:23:47;3.00;1.00
573;DHT22;271;51.114;13.780;2023-04-03T00:26:36;2.90;1.00
573;DHT22;271;51.114;13.780;2023-04-03T00:29:24;2.90;1.00
573;DHT22;271;51.114;13.780;2023-04-03T00:32:12;2.80;1.00
573;DHT22;271;51.114;13.780;2023-04-03T00:34:59;2.80;1.00
573;DHT22;271;51.114;13.780;2023-04-03T00:37:50;2.80;1.00
573;DHT22;271;51.114;13.780;2023-04-03T00:40:41;2.80;1.00
573;DHT22;271;51.114;13.780;2023-04-03T00:43:30;2.80;1.00
573;DHT22;271;51.114;13.780;2023-04-03T00:46:18;2.80;1.00
573;DHT22;271;51.114;13.780;2023-04-03T00:49:06;2.80;1.00
573;DHT22;271;51.114;13.780;2023-04-03T00:51:55;2.70;1.00
573;DHT22;271;51.114;13.780;2023-04-03T00:54:44;2.70;1.00
573;DHT22;271;51.114;13.780;2023-04-03T00:57:33;2.60;1.00
573;DHT22;271;51.114;13.780;2023-04-03T01:00:23;2.60;1.00
573;DHT22;271;51.114;13.780;2023-04-03T01:03:11;2.50;1.00
573;DHT22;271;51.114;13.780;2023-04-03T01:05:59;2.50;1.00
573;DHT22;271;51.114;13.780;2023-04-03T01:08:48;2.50;1.00
573;DHT22;271;51.114;13.780;2023-04-03T01:11:37;2.40;1.00
573;DHT22;271;51.114;13.780;2023-04-03T01:14:24;2.40;1.00
573;DHT22;271;51.114;13.780;2023-04-03T01:17:27;2.40;1.00
573;DHT22;271;51.114;13.780;2023-04-03T01:20:43;2.30;1.00
573;DHT22;271;51.114;13.780;2023-04-03T01:26:41;2.20;1.00
573;DHT22;271;51.114;13.780;2023-04-03T01:29:29;2.20;1.00
573;DHT22;271;51.114;13.780;2023-04-03T01:32:18;2.20;1.00
573;DHT22;271;51.114;13.780;2023-04-03T01:35:08;2.20;1.00
573;DHT22;271;51.114;13.780;2023-04-03T01:37:55;2.10;1.00
573;DHT22;271;51.114;13.780;2023-04-03T01:40:43;2.10;1.00
573;DHT22;271;51.114;13.780;2023-04-03T01:43:31;2.10;1.00
573;DHT22;271;51.114;13.780;2023-04-03T01:46:19;2.10;1.00
573;DHT22;271;51.114;13.780;2023-04-03T01:49:08;2.00;1.00
573;DHT22;271;51.114;13.780;2023-04-03T01:51:56;1.90;1.00
573;DHT22;271;51.114;13.780;2023-04-03T01:54:44;1.80;1.00
573;DHT22;271;51.114;13.780;2023-04-03T01:57:31;1.80;1.00
573;DHT22;271;51.114;13.780;2023-04-03T02:00:19;1.80;1.00
573;DHT22;271;51.114;13.780;2023-04-03T02:03:07;1.80;1.00
573;DHT22;271;51.114;13.780;2023-04-03T02:05:56;1.80;1.00
573;DHT22;271;51.114;13.780;2023-04-03T02:08:44;1.70;1.00
573;DHT22;271;51.114;13.780;2023-04-03T02:11:32;1.70;1.00
573;DHT22;271;51.114;13.780;2023-04-03T02:14:20;1.70;1.00
573;DHT22;271;51.114;13.780;2023-04-03T02:17:08;1.70;1.00
573;DHT22;271;51.114;13.780;2023-04-03T02:19:55;1.60;1.00
573;DHT22;271;51.114;13.780;2023-04-03T02:22:44;1.50;1.00
573;DHT22;271;51.114;13.780;2023-04-03T02:25:33;1.50;1.00
573;DHT22;271;51.114;13.780;2023-04-03T02:28:20;1.50;1.00
573;DHT22;271;51.114;13.780;2023-04-03T02:31:09;1.50;1.00
573;DHT22;271;51.114;13.780;2023-04-03T02:33:57;1.50;1.00
573;DHT22;271;51.114;13.780;2023-04-03T02:36:45;1.50;1.00
573;DHT22;271;51.114;13.780;2023-04-03T02:39:34;1.50;1.00
573;DHT22;271;51.114;13.780;2023-04-03T02:42:21;1.50;1.00
573;DHT22;271;51.114;13.780;2023-04-03T02:45:09;1.40;1.00
573;DHT22;271;51.114;13.780;2023-04-03T02:47:57;1.40;1.00
573;DHT22;271;51.114;13.780;2023-04-03T02:50:45;1.20;1.00
573;DHT22;271;51.114;13.780;2023-04-03T02:53:32;1.20;1.00
573;DHT22;271;51.114;13.780;2023-04-03T02:56:22;1.20;1.00
573;DHT22;271;51.114;13.780;2023-04-03T02:59:09;1.10;1.00
573;DHT22;271;51.114;13.780;2023-04-03T03:01:57;1.00;1.00
573;DHT22;271;51.114;13.780;2023-04-03T03:04:45;1.00;1.00
573;DHT22;271;51.114;13.780;2023-04-03T03:07:33;0.90;1.00
573;DHT22;271;51.114;13.780;2023-04-03T03:10:21;0.90;1.00
573;DHT22;271;51.114;13.780;2023-04-03T03:13:10;0.80;1.00
573;DHT22;271;51.114;13.780;2023-04-03T03:15:58;0.70;1.00
573;DHT22;271;51.114;13.780;2023-04-03T03:18:45;0.70;1.00
573;DHT22;271;51.114;13.780;2023-04-03T03:21:33;0.60;1.00
573;DHT22;271;51.114;13.780;2023-04-03T03:24:21;0.60;1.00
573;DHT22;271;51.114;13.780;2023-04-03T03:27:08;0.70;1.00
573;DHT22;271;51.114;13.780;2023-04-03T03:29:57;0.70;1.00
573;DHT22;271;51.114;13.780;2023-04-03T03:32:45;0.60;1.00
573;DHT22;271;51.114;13.780;2023-04-03T03:35:33;0.60;1.00
573;DHT22;271;51.114;13.780;2023-04-03T03:38:22;0.50;1.00
573;DHT22;271;51.114;13.780;2023-04-03T03:41:10;0.50;1.00
573;DHT22;271;51.114;13.780;2023-04-03T03:43:57;0.50;1.00
573;DHT22;271;51.114;13.780;2023-04-03T03:46:47;0.40;1.00
573;DHT22;271;51.114;13.780;2023-04-03T03:49:34;0.30;1.00
573;DHT22;271;51.114;13.780;2023-04-03T03:52:22;0.30;1.00
573;DHT22;271;51.114;13.780;2023-04-03T03:55:10;0.30;1.00
573;DHT22;271;51.114;13.780;2023-04-03T03:57:57;0.30;1.00
573;DHT22;271;51.114;13.780;2023-04-03T04:00:46;0.30;1.00
573;DHT22;271;51.114;13.780;2023-04-03T04:03:35;0.30;1.00
573;DHT22;271;51.114;13.780;2023-04-03T04:06:23;0.30;1.00
573;DHT22;271;51.114;13.780;2023-04-03T04:09:12;0.30;1.00
573;DHT22;271;51.114;13.780;2023-04-03T04:12:00;0.20;1.00
573;DHT22;271;51.114;13.780;2023-04-03T04:14:48;0.20;1.00
573;DHT22;271;51.114;13.780;2023-04-03T04:17:35;0.20;1.00
573;DHT22;271;51.114;13.780;2023-04-03T04:20:24;0.20;1.00
573;DHT22;271;51.114;13.780;2023-04-03T04:23:12;0.20;1.00
573;DHT22;271;51.114;13.780;2023-04-03T04:26:00;0.10;1.00
573;DHT22;271;51.114;13.780;2023-04-03T04:28:47;0.00;1.00
573;DHT22;271;51.114;13.780;2023-04-03T04:31:35;0.00;1.00
573;DHT22;271;51.114;13.780;2023-04-03T04:34:23;0.00;1.00
573;DHT22;271;51.114;13.780;2023-04-03T04:37:12;0.00;1.00
573;DHT22;271;51.114;13.780;2023-04-03T04:40:00;-0.10;1.00
573;DHT22;271;51.114;13.780;2023-04-03T04:42:48;-0.10;1.00
573;DHT22;271;51.114;13.780;2023-04-03T04:45:36;-0.20;1.00
573;DHT22;271;51.114;13.780;2023-04-03T04:48:23;-0.20;1.00
573;DHT22;271;51.114;13.780;2023-04-03T04:51:12;-0.20;1.00
573;DHT22;271;51.114;13.780;2023-04-03T04:54:01;-0.20;1.00
573;DHT22;271;51.114;13.780;2023-04-03T04:56:49;-0.30;1.00
573;DHT22;271;51.114;13.780;2023-04-03T04:59:36;-0.30;1.00
573;DHT22;271;51.114;13.780;2023-04-03T05:02:24;-0.30;1.00
573;DHT22;271;51.114;13.780;2023-04-03T05:05:12;-0.30;1.00
573;DHT22;271;51.114;13.780;2023-04-03T05:07:59;-0.30;1.00
573;DHT22;271;51.114;13.780;2023-04-03T05:10:48;-0.20;1.00
573;DHT22;271;51.114;13.780;2023-04-03T05:13:36;-0.20;1.00
573;DHT22;271;51.114;13.780;2023-04-03T05:16:24;-0.10;1.00
573;DHT22;271;51.114;13.780;2023-04-03T05:19:12;-0.10;1.00
573;DHT22;271;51.114;13.780;2023-04-03T05:22:00;-0.10;1.00
573;DHT22;271;51.114;13.780;2023-04-03T05:24:48;0.00;1.00
573;DHT22;271;51.114;13.780;2023-04-03T05:27:37;0.20;1.00
573;DHT22;271;51.114;13.780;2023-04-03T05:30:25;0.20;1.00
573;DHT22;271;51.114;13.780;2023-04-03T05:33:13;0.20;1.00
573;DHT22;271;51.114;13.780;2023-04-03T05:36:03;0.40;1.00
573;DHT22;271;51.114;13.780;2023-04-03T05:38:51;0.40;1.00
573;DHT22;271;51.114;13.780;2023-04-03T05:41:39;0.40;1.00
573;DHT22;271;51.114;13.780;2023-04-03T05:44:28;0.40;1.00
573;DHT22;271;51.114;13.780;2023-04-03T05:47:16;0.40;1.00
573;DHT22;271;51.114;13.780;2023-04-03T05:50:05;0.40;1.00
573;DHT22;271;51.114;13.780;2023-04-03T05:52:55;0.40;1.00
573;DHT22;271;51.114;13.780;2023-04-03T05:55:44;0.50;1.00
573;DHT22;271;51.114;13.780;2023-04-03T05:58:32;0.50;1.00
573;DHT22;271;51.114;13.780;2023-04-03T06:01:21;0.60;1.00
573;DHT22;271;51.114;13.780;2023-04-03T06:04:09;0.60;1.00
573;DHT22;271;51.114;13.780;2023-04-03T06:06:58;0.70;1.00
573;DHT22;271;51.114;13.780;2023-04-03T06:09:47;0.80;1.00
573;DHT22;271;51.114;13.780;2023-04-03T06:12:35;1.00;1.00
573;DHT22;271;51.114;13.780;2023-04-03T06:15:22;0.90;1.00
573;DHT22;271;51.114;13.780;2023-04-03T06:18:19;0.90;1.00
573;DHT22;271;51.114;13.780;2023-04-03T06:21:07;0.90;1.00
573;DHT22;271;51.114;13.780;2023-04-03T06:23:55;0.80;1.00
573;DHT22;271;51.114;13.780;2023-04-03T06:26:46;0.80;1.00
573;DHT22;271;51.114;13.780;2023-04-03T06:29:34;0.90;1.00
573;DHT22;271;51.114;13.780;2023-04-03T06:32:23;0.90;1.00
573;DHT22;271;51.114;13.780;2023-04-03T06:35:12;1.00;1.00
573;DHT22;271;51.114;13.780;2023-04-03T06:38:00;0.90;1.00
573;DHT22;271;51.114;13.780;2023-04-03T06:40:50;0.90;1.00
573;DHT22;271;51.114;13.780;2023-04-03T06:43:38;0.90;1.00
573;DHT22;271;51.114;13.780;2023-04-03T06:46:26;1.00;1.00
573;DHT22;271;51.114;13.780;2023-04-03T06:49:14;1.10;1.00
573;DHT22;271;51.114;13.780;2023-04-03T06:52:04;1.20;1.00
573;DHT22;271;51.114;13.780;2023-04-03T06:54:52;1.20;1.00
573;DHT22;271;51.114;13.780;2023-04-03T06:57:43;1.20;1.00
573;DHT22;271;51.114;13.780;2023-04-03T07:00:31;1.50;1.00
573;DHT22;271;51.114;13.780;2023-04-03T07:03:19;1.40;1.00
573;DHT22;271;51.114;13.780;2023-04-03T07:06:10;1.40;1.00
573;DHT22;271;51.114;13.780;2023-04-03T07:09:00;1.40;1.00
573;DHT22;271;51.114;13.780;2023-04-03T07:11:49;1.50;1.00
573;DHT22;271;51.114;13.780;2023-04-03T07:14:36;1.40;1.00
573;DHT22;271;51.114;13.780;2023-04-03T07:17:24;1.50;1.00
573;DHT22;271;51.114;13.780;2023-04-03T07:20:13;1.50;1.00
573;DHT22;271;51.114;13.780;2023-04-03T07:23:01;1.40;1.00
573;DHT22;271;51.114;13.780;2023-04-03T07:25:51;1.50;1.00
573;DHT22;271;51.114;13.780;2023-04-03T07:28:39;1.50;1.00
573;DHT22;271;51.114;13.780;2023-04-03T07:31:27;1.50;1.00
573;DHT22;271;51.114;13.780;2023-04-03T07:34:15;1.50;1.00
573;DHT22;271;51.114;13.780;2023-04-03T07:37:03;1.40;1.00
573;DHT22;271;51.114;13.780;2023-04-03T07:39:51;1.50;1.00
573;DHT22;271;51.114;13.780;2023-04-03T07:42:40;1.50;1.00
573;DHT22;271;51.114;13.780;2023-04-03T07:45:28;1.60;1.00
573;DHT22;271;51.114;13.780;2023-04-03T07:48:17;1.60;1.00
573;DHT22;271;51.114;13.780;2023-04-03T07:51:05;1.50;1.00
573;DHT22;271;51.114;13.780;2023-04-03T07:53:54;1.50;1.00
573;DHT22;271;51.114;13.780;2023-04-03T07:56:42;1.70;1.00
573;DHT22;271;51.114;13.780;2023-04-03T07:59:31;1.90;1.00
573;DHT22;271;51.114;13.780;2023-04-03T08:02:19;1.90;1.00
573;DHT22;271;51.114;13.780;2023-04-03T08:05:07;1.90;1.00
573;DHT22;271;51.114;13.780;2023-04-03T08:07:55;2.00;1.00
573;DHT22;271;51.114;13.780;2023-04-03T08:10:43;2.10;1.00
573;DHT22;271;51.114;13.780;2023-04-03T08:13:31;2.30;1.00
573;DHT22;271;51.114;13.780;2023-04-03T08:16:21;2.30;1.00
573;DHT22;271;51.114;13.780;2023-04-03T08:19:11;2.40;1.00
573;DHT22;271;51.114;13.780;2023-04-03T08:22:01;2.40;1.00
573;DHT22;271;51.114;13.780;2023-04-03T08:24:50;2.40;1.00
573;DHT22;271;51.114;13.780;2023-04-03T08:27:37;2.40;1.00
573;DHT22;271;51.114;13.780;2023-04-03T08:30:25;2.50;1.00
573;DHT22;271;51.114;13.780;2023-04-03T08:33:14;2.60;1.00
573;DHT22;271;51.114;13.780;2023-04-03T08:36:03;2.50;1.00
573;DHT22;271;51.114;13.780;2023-04-03T08:38:52;2.50;1.00
573;DHT22;271;51.114;13.780;2023-04-03T08:41:41;2.60;1.00
573;DHT22;271;51.114;13.780;2023-04-03T08:44:38;2.80;1.00
573;DHT22;271;51.114;13.780;2023-04-03T08:47:32;2.80;1.00
573;DHT22;271;51.114;13.780;2023-04-03T08:50:26;3.10;1.00
573;DHT22;271;51.114;13.780;2023-04-03T08:53:18;3.20;1.00
573;DHT22;271;51.114;13.780;2023-04-03T08:56:09;3.20;1.00
573;DHT22;271;51.114;13.780;2023-04-03T08:59:00;3.20;1.00
573;DHT22;271;51.114;13.780;2023-04-03T09:01:52;3.30;1.00
573;DHT22;271;51.114;13.780;2023-04-03T09:04:40;3.30;1.00
573;DHT22;271;51.114;13.780;2023-04-03T09:07:38;3.40;1.00
573;DHT22;271;51.114;13.780;2023-04-03T09:10:29;3.40;1.00
573;DHT22;271;51.114;13.780;2023-04-03T09:13:26;3.60;1.00
573;DHT22;271;51.114;13.780;2023-04-03T09:16:25;3.80;1.00
573;DHT22;271;51.114;13.780;2023-04-03T09:19:20;3.80;1.00
573;DHT22;271;51.114;13.780;2023-04-03T09:22:16;3.60;1.00
573;DHT22;271;51.114;13.780;2023-04-03T09:25:11;3.60;1.00
573;DHT22;271;51.114;13.780;2023-04-03T09:28:00;3.90;1.00
573;DHT22;271;51.114;13.780;2023-04-03T09:30:48;4.00;1.00
573;DHT22;271;51.114;13.780;2023-04-03T09:33:36;3.90;1.00
573;DHT22;271;51.114;13.780;2023-04-03T09:36:41;3.90;1.00
573;DHT22;271;51.114;13.780;2023-04-03T09:39:29;4.00;1.00
573;DHT22;271;51.114;13.780;2023-04-03T09:42:20;4.00;1.00
573;DHT22;271;51.114;13.780;2023-04-03T09:45:22;4.00;1.00
573;DHT22;271;51.114;13.780;2023-04-03T09:48:16;4.20;1.00
573;DHT22;271;51.114;13.780;2023-04-03T09:51:04;4.20;1.00
573;DHT22;271;51.114;13.780;2023-04-03T09:53:52;4.30;1.00
573;DHT22;271;51.114;13.780;2023-04-03T09:56:39;4.20;1.00
573;DHT22;271;51.114;13.780;2023-04-03T09:59:29;4.30;1.00
573;DHT22;271;51.114;13.780;2023-04-03T10:05:34;4.30;1.00
573;DHT22;271;51.114;13.780;2023-04-03T10:08:26;5.20;1.00
573;DHT22;271;51.114;13.780;2023-04-03T10:11:16;6.40;1.00
573;DHT22;271;51.114;13.780;2023-04-03T10:14:10;7.00;1.00
573;DHT22;271;51.114;13.780;2023-04-03T10:17:14;7.10;1.00
573;DHT22;271;51.114;13.780;2023-04-03T10:20:16;6.80;1.00
573;DHT22;271;51.114;13.780;2023-04-03T10:23:16;6.60;1.00
573;DHT22;271;51.114;13.780;2023-04-03T10:26:14;6.30;1.00
573;DHT22;271;51.114;13.780;2023-04-03T10:29:09;7.10;1.00
573;DHT22;271;51.114;13.780;2023-04-03T10:32:03;7.30;1.00
573;DHT22;271;51.114;13.780;2023-04-03T10:35:08;7.10;1.00
573;DHT22;271;51.114;13.780;2023-04-03T10:38:05;6.90;1.00
573;DHT22;271;51.114;13.780;2023-04-03T10:40:59;6.60;1.00
573;DHT22;271;51.114;13.780;2023-04-03T10:43:56;6.90;1.00
573;DHT22;271;51.114;13.780;2023-04-03T10:46:49;7.60;1.00
573;DHT22;271;51.114;13.780;2023-04-03T10:49:48;8.30;1.00
573;DHT22;271;51.114;13.780;2023-04-03T10:52:45;8.90;1.00
573;DHT22;271;51.114;13.780;2023-04-03T10:55:37;8.60;1.00
573;DHT22;271;51.114;13.780;2023-04-03T10:58:31;8.10;1.00
573;DHT22;271;51.114;13.780;2023-04-03T11:01:22;7.40;1.00
573;DHT22;271;51.114;13.780;2023-04-03T11:04:13;6.70;1.00
573;DHT22;271;51.114;13.780;2023-04-03T11:07:08;6.30;1.00
573;DHT22;271;51.114;13.780;2023-04-03T11:10:02;6.30;1.00
573;DHT22;271;51.114;13.780;2023-04-03T11:12:54;6.40;1.00
573;DHT22;271;51.114;13.780;2023-04-03T11:15:44;6.70;1.00
573;DHT22;271;51.114;13.780;2023-04-03T11:18:37;6.80;1.00
573;DHT22;271;51.114;13.780;2023-04-03T11:21:29;6.70;1.00
573;DHT22;271;51.114;13.780;2023-04-03T11:24:22;6.60;1.00
573;DHT22;271;51.114;13.780;2023-04-03T11:27:17;6.60;1.00
573;DHT22;271;51.114;13.780;2023-04-03T11:30:15;6.70;1.00
573;DHT22;271;51.114;13.780;2023-04-03T11:33:17;6.50;1.00
573;DHT22;271;51.114;13.780;2023-04-03T11:36:10;6.60;1.00
573;DHT22;271;51.114;13.780;2023-04-03T11:39:02;6.20;1.00
573;DHT22;271;51.114;13.780;2023-04-03T11:41:55;5.90;1.00
573;DHT22;271;51.114;13.780;2023-04-03T11:44:44;5.70;1.00
573;DHT22;271;51.114;13.780;2023-04-03T11:47:47;5.70;1.00
573;DHT22;271;51.114;13.780;2023-04-03T11:50:43;5.60;1.00
573;DHT22;271;51.114;13.780;2023-04-03T11:53:34;5.60;1.00
573;DHT22;271;51.114;13.780;2023-04-03T11:56:30;5.80;1.00
573;DHT22;271;51.114;13.780;2023-04-03T11:59:24;5.70;1.00
573;DHT22;271;51.114;13.780;2023-04-03T12:02:36;5.90;1.00
573;DHT22;271;51.114;13.780;2023-04-03T12:05:26;6.20;1.00
573;DHT22;271;51.114;13.780;2023-04-03T12:08:24;6.30;1.00
573;DHT22;271;51.114;13.780;2023-04-03T12:11:24;6.30;1.00
573;DHT22;271;51.114;13.780;2023-04-03T12:14:15;6.30;1.00
573;DHT22;271;51.114;13.780;2023-04-03T12:17:03;6.40;1.00
573;DHT22;271;51.114;13.780;2023-04-03T12:19:52;6.30;1.00
573;DHT22;271;51.114;13.780;2023-04-03T12:23:24;6.20;1.00
573;DHT22;271;51.114;13.780;2023-04-03T12:26:24;5.80;1.00
573;DHT22;271;51.114;13.780;2023-04-03T12:29:17;5.60;1.00
573;DHT22;271;51.114;13.780;2023-04-03T12:32:13;5.50;1.00
573;DHT22;271;51.114;13.780;2023-04-03T12:35:10;5.50;1.00
573;DHT22;271;51.114;13.780;2023-04-03T12:38:25;5.50;1.00
573;DHT22;271;51.114;13.780;2023-04-03T12:41:25;5.60;1.00
573;DHT22;271;51.114;13.780;2023-04-03T12:44:30;5.50;1.00
573;DHT22;271;51.114;13.780;2023-04-03T12:47:28;5.20;1.00
573;DHT22;271;51.114;13.780;2023-04-03T12:50:21;5.40;1.00
573;DHT22;271;51.114;13.780;2023-04-03T12:53:14;5.40;1.00
573;DHT22;271;51.114;13.780;2023-04-03T12:56:22;5.40;1.00
573;DHT22;271;51.114;13.780;2023-04-03T12:59:15;5.30;1.00
573;DHT22;271;51.114;13.780;2023-04-03T13:02:17;5.30;1.00
573;DHT22;271;51.114;13.780;2023-04-03T13:05:08;5.40;1.00
573;DHT22;271;51.114;13.780;2023-04-03T13:07:59;5.30;1.00
573;DHT22;271;51.114;13.780;2023-04-03T13:10:55;5.40;1.00
573;DHT22;271;51.114;13.780;2023-04-03T13:13:56;5.70;1.00
573;DHT22;271;51.114;13.780;2023-04-03T13:16:53;6.10;1.00
573;DHT22;271;51.114;13.780;2023-04-03T13:19:43;6.10;1.00
573;DHT22;271;51.114;13.780;2023-04-03T13:22:33;5.90;1.00
573;DHT22;271;51.114;13.780;2023-04-03T13:25:28;5.70;1.00
573;DHT22;271;51.114;13.780;2023-04-03T13:28:19;5.40;1.00
573;DHT22;271;51.114;13.780;2023-04-03T13:31:18;5.30;1.00
573;DHT22;271;51.114;13.780;2023-04-03T13:34:10;5.40;1.00
573;DHT22;271;51.114;13.780;2023-04-03T13:37:00;5.40;1.00
573;DHT22;271;51.114;13.780;2023-04-03T13:39:58;5.40;1.00
573;DHT22;271;51.114;13.780;2023-04-03T13:42:59;5.60;1.00
573;DHT22;271;51.114;13.780;2023-04-03T13:46:05;6.10;1.00
573;DHT22;271;51.114;13.780;2023-04-03T13:48:56;6.70;1.00
573;DHT22;271;51.114;13.780;2023-04-03T13:51:44;7.30;1.00
573;DHT22;271;51.114;13.780;2023-04-03T13:54:37;7.60;1.00
573;DHT22;271;51.114;13.780;2023-04-03T13:57:25;7.40;1.00
573;DHT22;271;51.114;13.780;2023-04-03T14:00:27;6.80;1.00
573;DHT22;271;51.114;13.780;2023-04-03T14:03:19;6.40;1.00
573;DHT22;271;51.114;13.780;2023-04-03T14:06:11;6.00;1.00
573;DHT22;271;51.114;13.780;2023-04-03T14:08:59;5.60;1.00
573;DHT22;271;51.114;13.780;2023-04-03T14:11:49;5.20;1.00
573;DHT22;271;51.114;13.780;2023-04-03T14:14:37;5.10;1.00
573;DHT22;271;51.114;13.780;2023-04-03T14:17:27;5.10;1.00
573;DHT22;271;51.114;13.780;2023-04-03T14:20:16;5.00;1.00
573;DHT22;271;51.114;13.780;2023-04-03T14:23:06;5.00;1.00
573;DHT22;271;51.114;13.780;2023-04-03T14:25:53;5.10;1.00
573;DHT22;271;51.114;13.780;2023-04-03T14:28:42;5.00;1.00
573;DHT22;271;51.114;13.780;2023-04-03T14:31:30;5.10;1.00
573;DHT22;271;51.114;13.780;2023-04-03T14:34:17;5.20;1.00
573;DHT22;271;51.114;13.780;2023-04-03T14:37:10;5.30;1.00
573;DHT22;271;51.114;13.780;2023-04-03T14:40:00;5.30;1.00
573;DHT22;271;51.114;13.780;2023-04-03T14:42:50;5.20;1.00
573;DHT22;271;51.114;13.780;2023-04-03T14:45:38;5.00;1.00
573;DHT22;271;51.114;13.780;2023-04-03T14:48:27;5.00;1.00
573;DHT22;271;51.114;13.780;2023-04-03T14:51:15;4.90;1.00
573;DHT22;271;51.114;13.780;2023-04-03T14:54:03;4.90;1.00
573;DHT22;271;51.114;13.780;2023-04-03T14:56:55;5.00;1.00
573;DHT22;271;51.114;13.780;2023-04-03T14:59:45;4.90;1.00
573;DHT22;271;51.114;13.780;2023-04-03T15:02:34;4.90;1.00
573;DHT22;271;51.114;13.780;2023-04-03T15:05:22;4.90;1.00
573;DHT22;271;51.114;13.780;2023-04-03T15:08:17;4.90;1.00
573;DHT22;271;51.114;13.780;2023-04-03T15:11:06;4.90;1.00
573;DHT22;271;51.114;13.780;2023-04-03T15:13:55;4.80;1.00
573;DHT22;271;51.114;13.780;2023-04-03T15:16:43;4.90;1.00
573;DHT22;271;51.114;13.780;2023-04-03T15:19:36;4.80;1.00
573;DHT22;271;51.114;13.780;2023-04-03T15:22:24;4.80;1.00
573;DHT22;271;51.114;13.780;2023-04-03T15:25:12;4.70;1.00
573;DHT22;271;51.114;13.780;2023-04-03T15:28:00;4.70;1.00
573;DHT22;271;51.114;13.780;2023-04-03T15:30:49;4.80;1.00
573;DHT22;271;51.114;13.780;2023-04-03T15:33:37;4.70;1.00
573;DHT22;271;51.114;13.780;2023-04-03T15:36:25;4.70;1.00
573;DHT22;271;51.114;13.780;2023-04-03T15:39:13;4.70;1.00
573;DHT22;271;51.114;13.780;2023-04-03T15:42:00;4.70;1.00
573;DHT22;271;51.114;13.780;2023-04-03T15:44:52;4.60;1.00
573;DHT22;271;51.114;13.780;2023-04-03T15:47:41;4.60;1.00
573;DHT22;271;51.114;13.780;2023-04-03T15:50:29;4.50;1.00
573;DHT22;271;51.114;13.780;2023-04-03T15:53:17;4.60;1.00
573;DHT22;271;51.114;13.780;2023-04-03T15:56:05;4.50;1.00
573;DHT22;271;51.114;13.780;2023-04-03T15:58:54;4.50;1.00
573;DHT22;271;51.114;13.780;2023-04-03T16:01:42;4.40;1.00
573;DHT22;271;51.114;13.780;2023-04-03T16:04:32;4.40;1.00
573;DHT22;271;51.114;13.780;2023-04-03T16:07:20;4.50;1.00
573;DHT22;271;51.114;13.780;2023-04-03T16:10:09;4.40;1.00
573;DHT22;271;51.114;13.780;2023-04-03T16:12:57;4.30;1.00
573;DHT22;271;51.114;13.780;2023-04-03T16:15:45;4.20;1.00
573;DHT22;271;51.114;13.780;2023-04-03T16:18:35;4.00;1.00
573;DHT22;271;51.114;13.780;2023-04-03T16:21:24;4.00;1.00
573;DHT22;271;51.114;13.780;2023-04-03T16:24:12;3.90;1.00
573;DHT22;271;51.114;13.780;2023-04-03T16:27:00;4.00;1.00
573;DHT22;271;51.114;13.780;2023-04-03T16:29:48;4.00;1.00
573;DHT22;271;51.114;13.780;2023-04-03T16:32:38;4.00;1.00
573;DHT22;271;51.114;13.780;2023-04-03T16:35:27;3.90;1.00
573;DHT22;271;51.114;13.780;2023-04-03T16:38:16;3.80;1.00
573;DHT22;271;51.114;13.780;2023-04-03T16:41:05;3.80;1.00
573;DHT22;271;51.114;13.780;2023-04-03T16:43:52;3.90;1.00
573;DHT22;271;51.114;13.780;2023-04-03T16:46:41;3.90;1.00
573;DHT22;271;51.114;13.780;2023-04-03T16:49:28;3.70;1.00
573;DHT22;271;51.114;13.780;2023-04-03T16:52:22;3.80;1.00
573;DHT22;271;51.114;13.780;2023-04-03T16:55:11;3.80;1.00
573;DHT22;271;51.114;13.780;2023-04-03T16:57:58;3.80;1.00
573;DHT22;271;51.114;13.780;2023-04-03T17:00:46;3.80;1.00
573;DHT22;271;51.114;13.780;2023-04-03T17:03:37;3.70;1.00
573;DHT22;271;51.114;13.780;2023-04-03T17:06:25;3.70;1.00
573;DHT22;271;51.114;13.780;2023-04-03T17:09:14;3.60;1.00
573;DHT22;271;51.114;13.780;2023-04-03T17:12:03;3.50;1.00
573;DHT22;271;51.114;13.780;2023-04-03T17:14:54;3.40;1.00
573;DHT22;271;51.114;13.780;2023-04-03T17:17:42;3.30;1.00
573;DHT22;271;51.114;13.780;2023-04-03T17:20:32;3.20;1.00
573;DHT22;271;51.114;13.780;2023-04-03T17:23:23;3.30;1.00
573;DHT22;271;51.114;13.780;2023-04-03T17:26:11;3.30;1.00
573;DHT22;271;51.114;13.780;2023-04-03T17:29:00;3.20;1.00
573;DHT22;271;51.114;13.780;2023-04-03T17:31:47;3.10;1.00
573;DHT22;271;51.114;13.780;2023-04-03T17:34:35;3.10;1.00
573;DHT22;271;51.114;13.780;2023-04-03T17:37:23;3.00;1.00
573;DHT22;271;51.114;13.780;2023-04-03T17:40:11;2.90;1.00
573;DHT22;271;51.114;13.780;2023-04-03T17:43:00;2.90;1.00
573;DHT22;271;51.114;13.780;2023-04-03T17:45:49;2.80;1.00
573;DHT22;271;51.114;13.780;2023-04-03T17:48:38;2.70;1.00
573;DHT22;271;51.114;13.780;2023-04-03T17:51:27;2.70;1.00
573;DHT22;271;51.114;13.780;2023-04-03T17:54:14;2.60;1.00
573;DHT22;271;51.114;13.780;2023-04-03T17:57:02;2.60;1.00
573;DHT22;271;51.114;13.780;2023-04-03T17:59:50;2.60;1.00
573;DHT22;271;51.114;13.780;2023-04-03T18:02:40;2.60;1.00
573;DHT22;271;51.114;13.780;2023-04-03T18:05:28;2.50;1.00
573;DHT22;271;51.114;13.780;2023-04-03T18:08:16;2.50;1.00
573;DHT22;271;51.114;13.780;2023-04-03T18:11:04;2.40;1.00
573;DHT22;271;51.114;13.780;2023-04-03T18:13:52;2.30;1.00
573;DHT22;271;51.114;13.780;2023-04-03T18:16:40;2.10;1.00
573;DHT22;271;51.114;13.780;2023-04-03T18:19:29;2.10;1.00
573;DHT22;271;51.114;13.780;2023-04-03T18:22:19;2.10;1.00
573;DHT22;271;51.114;13.780;2023-04-03T18:25:07;2.10;1.00
573;DHT22;271;51.114;13.780;2023-04-03T18:27:56;2.00;1.00
573;DHT22;271;51.114;13.780;2023-04-03T18:30:45;2.10;1.00
573;DHT22;271;51.114;13.780;2023-04-03T18:33:33;2.10;1.00
573;DHT22;271;51.114;13.780;2023-04-03T18:36:22;2.10;1.00
573;DHT22;271;51.114;13.780;2023-04-03T18:39:10;2.00;1.00
573;DHT22;271;51.114;13.780;2023-04-03T18:42:04;2.00;1.00
573;DHT22;271;51.114;13.780;2023-04-03T18:44:55;2.00;1.00
573;DHT22;271;51.114;13.780;2023-04-03T18:47:44;2.00;1.00
573;DHT22;271;51.114;13.780;2023-04-03T18:50:33;2.10;1.00
573;DHT22;271;51.114;13.780;2023-04-03T18:53:22;2.10;1.00
573;DHT22;271;51.114;13.780;2023-04-03T18:56:10;2.10;1.00
573;DHT22;271;51.114;13.780;2023-04-03T18:58:58;2.20;1.00
573;DHT22;271;51.114;13.780;2023-04-03T19:01:46;2.20;1.00
573;DHT22;271;51.114;13.780;2023-04-03T19:04:34;2.20;1.00
573;DHT22;271;51.114;13.780;2023-04-03T19:07:22;2.20;1.00
573;DHT22;271;51.114;13.780;2023-04-03T19:10:12;2.30;1.00
573;DHT22;271;51.114;13.780;2023-04-03T19:13:02;2.40;1.00
573;DHT22;271;51.114;13.780;2023-04-03T19:15:51;2.40;1.00
573;DHT22;271;51.114;13.780;2023-04-03T19:18:40;2.50;1.00
573;DHT22;271;51.114;13.780;2023-04-03T19:21:28;2.50;1.00
573;DHT22;271;51.114;13.780;2023-04-03T19:24:16;2.50;1.00
573;DHT22;271;51.114;13.780;2023-04-03T19:27:05;2.50;1.00
573;DHT22;271;51.114;13.780;2023-04-03T19:29:53;2.50;1.00
573;DHT22;271;51.114;13.780;2023-04-03T19:32:41;2.50;1.00
573;DHT22;271;51.114;13.780;2023-04-03T19:35:28;2.50;1.00